METAR Data
IDs: Format: Raw Decoded Include TAF

Data at: 0104 UTC 20 Jul 2019

METAR for:KBRL (Burlington/SE Iowa R, IA, US)
Text:KBRL 200053Z AUTO 20010G22KT 10SM CLR 32/25 A2978 RMK AO2 SLP076 T03170250
Temperature: 31.7°C ( 89°F)
Dewpoint: 25.0°C ( 77°F) [RH = 68%]
Pressure (altimeter):29.78 inches Hg (1008.5 mb) [Sea level pressure: 1007.6 mb]
Winds:from the SSW (200 degrees) at 12 MPH (10 knots; 5.1 m/s) gusting to 25 MPH (22 knots; 11.3 m/s)
Visibility:10 or more sm (16+ km)
Ceiling:at least 12,000 feet AGL
Clouds:sky clear below 12,000 feet AGL
QC Flag:automated observation with no human augmentation